Time;durP1;ratioP1;P1;durP2;ratioP2;P2;SDS_P1;SDS_P2;PMS_P1;PMS_P2;Temp;Humidity;BMP_temperature;BMP_pressure;BME280_temperature;BME280_humidity;BME280_pressure;Samples;Min_cycle;Max_cycle;Signal;HPM_P1;HPM_P2
2022/11/25 00:00:43;;;;;;;10.35;2.55;;;9.70;99.90;;;;;;5097878;28;20020;-79
2022/11/25 00:03:09;;;;;;;7.68;2.10;;;9.70;99.90;;;;;;5075630;28;20074;-79
2022/11/25 00:05:34;;;;;;;9.82;2.28;;;9.60;99.90;;;;;;5094338;28;20016;-79
2022/11/25 00:08:00;;;;;;;8.55;1.90;;;9.60;99.90;;;;;;5094781;28;20083;-78
2022/11/25 00:10:26;;;;;;;6.93;2.30;;;9.60;99.90;;;;;;5091227;28;20020;-79
2022/11/25 00:12:51;;;;;;;7.47;2.00;;;9.70;99.90;;;;;;5080518;28;20032;-78
2022/11/25 00:15:17;;;;;;;9.63;2.00;;;9.60;99.90;;;;;;5098275;28;21037;-79
2022/11/25 00:17:43;;;;;;;8.35;2.08;;;9.60;99.90;;;;;;5078455;28;20067;-78
2022/11/25 00:20:08;;;;;;;10.30;2.13;;;9.60;99.90;;;;;;5070759;28;20032;-78
2022/11/25 00:22:34;;;;;;;13.45;2.58;;;9.50;99.90;;;;;;5089710;28;20044;-78
2022/11/25 00:25:00;;;;;;;11.30;2.28;;;9.50;99.90;;;;;;5094953;28;20024;-78
2022/11/25 00:27:25;;;;;;;5.88;1.90;;;9.40;99.90;;;;;;5079971;28;20025;-78
2022/11/25 00:29:51;;;;;;;9.48;2.10;;;9.40;99.90;;;;;;5071526;28;20091;-79
2022/11/25 00:32:17;;;;;;;10.68;2.03;;;9.50;99.90;;;;;;5088770;28;20513;-78
2022/11/25 00:34:42;;;;;;;8.20;2.40;;;9.40;99.90;;;;;;5080125;28;20122;-79
2022/11/25 00:37:08;;;;;;;13.32;2.35;;;9.40;99.90;;;;;;5094339;28;20472;-78
2022/11/25 00:39:33;;;;;;;7.07;2.05;;;9.40;99.90;;;;;;5097195;28;20032;-79
2022/11/25 00:44:43;;;;;;;12.23;2.53;;;9.30;99.90;;;;;;5083058;28;20078;-79
2022/11/25 00:47:18;;;;;;;7.90;1.88;;;9.30;99.90;;;;;;5094774;28;20028;-78
2022/11/25 00:49:46;;;;;;;12.02;2.20;;;9.30;99.90;;;;;;5091291;28;20020;-78
2022/11/25 00:52:17;;;;;;;6.50;1.90;;;9.30;99.90;;;;;;5083960;28;20496;-78
2022/11/25 00:54:43;;;;;;;5.72;1.50;;;9.30;99.90;;;;;;5092295;28;20031;-77
2022/11/25 00:57:10;;;;;;;7.13;2.00;;;9.30;99.90;;;;;;5090142;28;20024;-78
2022/11/25 00:59:36;;;;;;;5.43;2.20;;;9.30;99.90;;;;;;5096750;28;20471;-78
2022/11/25 01:02:01;;;;;;;7.28;1.67;;;9.30;99.90;;;;;;5097665;28;20031;-78
2022/11/25 01:04:27;;;;;;;8.02;2.08;;;9.30;99.90;;;;;;5097391;28;20419;-77
2022/11/25 01:06:55;;;;;;;7.00;1.75;;;9.30;99.90;;;;;;5097419;28;20030;-77
2022/11/25 01:09:21;;;;;;;6.18;1.70;;;9.30;99.90;;;;;;5065450;28;20472;-78
2022/11/25 01:11:50;;;;;;;4.60;1.38;;;9.20;99.90;;;;;;5077330;28;20082;-78
2022/11/25 01:14:17;;;;;;;13.25;2.38;;;9.20;99.90;;;;;;5078433;28;20072;-79
2022/11/25 01:16:42;;;;;;;7.32;1.73;;;9.20;99.90;;;;;;5085721;28;20024;-78
2022/11/25 01:19:10;;;;;;;10.10;1.75;;;9.10;99.90;;;;;;5060578;28;20855;-78
2022/11/25 01:21:36;;;;;;;14.52;2.47;;;9.20;99.90;;;;;;5087280;28;20044;-79
2022/11/25 01:24:03;;;;;;;6.95;1.85;;;9.10;99.90;;;;;;5083247;28;20020;-78
2022/11/25 01:26:30;;;;;;;12.00;2.00;;;9.20;99.90;;;;;;5090368;28;20042;-78
2022/11/25 01:28:58;;;;;;;7.43;2.17;;;9.20;99.90;;;;;;5090838;28;20485;-78
2022/11/25 01:31:26;;;;;;;10.35;1.70;;;9.10;99.90;;;;;;5075477;28;20032;-79
2022/11/25 01:33:58;;;;;;;10.90;2.03;;;9.10;99.90;;;;;;5067201;28;20546;-78
2022/11/25 01:36:25;;;;;;;9.13;2.10;;;9.10;99.90;;;;;;5066880;28;20526;-78
2022/11/25 01:38:53;;;;;;;4.95;1.63;;;9.10;99.90;;;;;;5096463;28;20562;-79
2022/11/25 01:41:20;;;;;;;7.78;1.73;;;9.10;99.90;;;;;;5095845;28;20016;-78
2022/11/25 01:44:07;;;;;;;6.38;1.98;;;9.10;99.90;;;;;;5071317;28;20384;-78
2022/11/25 01:46:50;;;;;;;11.55;2.35;;;9.10;99.90;;;;;;5066977;28;20405;-77
2022/11/25 01:49:29;;;;;;;6.78;1.92;;;9.10;99.90;;;;;;5079180;28;20024;-78
2022/11/25 01:51:58;;;;;;;9.63;2.22;;;9.10;99.90;;;;;;5096779;28;20028;-78
2022/11/25 01:54:26;;;;;;;10.30;2.00;;;9.10;99.90;;;;;;5079168;28;20048;-78
2022/11/25 01:57:00;;;;;;;10.52;2.00;;;9.10;99.90;;;;;;5079037;28;20035;-78
2022/11/25 01:59:28;;;;;;;9.63;2.15;;;9.00;99.90;;;;;;5097239;28;20024;-78
2022/11/25 02:01:55;;;;;;;10.77;1.80;;;9.00;99.90;;;;;;5078351;28;20036;-78
2022/11/25 02:04:27;;;;;;;8.27;1.73;;;9.00;99.90;;;;;;5096939;28;20020;-77
2022/11/25 02:06:59;;;;;;;8.10;1.80;;;9.10;99.90;;;;;;5080793;28;20431;-78
2022/11/25 02:09:26;;;;;;;9.70;1.63;;;9.10;99.90;;;;;;5100710;28;20020;-78
2022/11/25 02:11:52;;;;;;;8.20;1.50;;;9.00;99.90;;;;;;5081222;28;20020;-78
2022/11/25 02:14:21;;;;;;;9.63;1.98;;;9.10;99.90;;;;;;5078825;28;20048;-78
2022/11/25 02:16:46;;;;;;;7.93;1.45;;;9.00;99.90;;;;;;5076991;28;20036;-79
2022/11/25 02:19:47;;;;;;;6.25;1.77;;;9.00;99.90;;;;;;5077401;28;20111;-78
2022/11/25 02:22:22;;;;;;;9.80;1.60;;;9.10;99.90;;;;;;5086841;28;20134;-78
2022/11/25 02:24:51;;;;;;;5.18;1.33;;;9.00;99.90;;;;;;5086028;28;20565;-79
2022/11/25 02:27:18;;;;;;;11.27;1.77;;;9.10;99.90;;;;;;5076695;28;20021;-78
2022/11/25 02:29:44;;;;;;;12.82;2.00;;;9.00;99.90;;;;;;5082960;28;20514;-79
2022/11/25 02:32:09;;;;;;;7.70;1.55;;;9.00;99.90;;;;;;5074621;28;20078;-79
2022/11/25 02:34:44;;;;;;;9.27;1.88;;;9.00;99.90;;;;;;5096367;28;20063;-79
2022/11/25 02:37:10;;;;;;;7.07;1.52;;;9.00;99.90;;;;;;5090359;28;20032;-78
2022/11/25 02:39:36;;;;;;;10.27;1.80;;;9.00;99.90;;;;;;5099090;28;20428;-79
2022/11/25 02:42:01;;;;;;;7.32;1.58;;;9.00;99.90;;;;;;5104267;28;20039;-78
2022/11/25 02:44:27;;;;;;;11.90;1.90;;;9.00;99.90;;;;;;5094944;28;20028;-78
2022/11/25 02:46:53;;;;;;;8.63;1.90;;;9.00;99.90;;;;;;5093226;28;20472;-78
2022/11/25 02:49:18;;;;;;;6.82;1.52;;;8.90;99.90;;;;;;5108559;28;20020;-78
2022/11/25 02:51:45;;;;;;;6.78;1.42;;;8.90;99.90;;;;;;5098215;28;20050;-78
2022/11/25 02:54:12;;;;;;;7.28;1.73;;;8.90;99.90;;;;;;5074358;28;20070;-78
2022/11/25 02:56:39;;;;;;;6.18;1.75;;;8.90;99.90;;;;;;5080177;28;20036;-79
2022/11/25 02:59:05;;;;;;;12.52;1.55;;;8.90;99.90;;;;;;5071345;28;20032;-79
2022/11/25 03:01:31;;;;;;;5.78;1.60;;;8.90;99.90;;;;;;5085441;28;20496;-79
2022/11/25 03:03:57;;;;;;;9.63;2.20;;;8.80;99.90;;;;;;5087427;28;20024;-79
2022/11/25 03:06:23;;;;;;;8.85;1.58;;;8.90;99.90;;;;;;5089892;28;20107;-78
2022/11/25 03:08:49;;;;;;;9.38;1.67;;;8.90;99.90;;;;;;5079613;28;20108;-79
2022/11/25 03:11:14;;;;;;;9.18;1.88;;;8.90;99.90;;;;;;5085653;28;20081;-78
2022/11/25 03:13:40;;;;;;;6.80;1.95;;;8.80;99.90;;;;;;5071177;28;20017;-79
2022/11/25 03:16:06;;;;;;;8.20;2.17;;;8.80;99.90;;;;;;5078125;28;20119;-78
2022/11/25 03:18:33;;;;;;;9.18;1.65;;;8.80;99.90;;;;;;5076773;28;20418;-78
2022/11/25 03:20:58;;;;;;;7.10;1.70;;;8.80;99.90;;;;;;5079998;28;20047;-78
2022/11/25 03:23:24;;;;;;;10.40;1.92;;;8.80;99.90;;;;;;5097917;28;20012;-78
2022/11/25 03:25:50;;;;;;;8.07;1.92;;;8.80;99.90;;;;;;5078799;28;20116;-79
2022/11/25 03:28:15;;;;;;;10.18;1.92;;;8.80;99.90;;;;;;5093945;28;20035;-79
2022/11/25 03:30:42;;;;;;;9.15;1.83;;;8.80;99.90;;;;;;5096858;28;20567;-78
2022/11/25 03:33:08;;;;;;;6.15;1.60;;;8.80;99.90;;;;;;5093509;28;20099;-78
2022/11/25 03:35:33;;;;;;;6.88;1.50;;;8.80;99.90;;;;;;5088651;28;20047;-78
2022/11/25 03:37:59;;;;;;;4.07;1.48;;;8.80;99.90;;;;;;5080487;28;20048;-79
2022/11/25 03:40:25;;;;;;;6.65;1.27;;;8.80;99.90;;;;;;5083641;28;20502;-78
2022/11/25 03:42:50;;;;;;;8.43;1.60;;;8.80;99.90;;;;;;5098584;28;20072;-78
2022/11/25 03:45:16;;;;;;;9.13;1.70;;;8.80;99.90;;;;;;5098016;28;20052;-78
2022/11/25 03:47:43;;;;;;;10.77;1.40;;;8.80;99.90;;;;;;5089875;28;20468;-77
2022/11/25 03:50:10;;;;;;;8.45;1.75;;;8.80;99.90;;;;;;5098465;28;20508;-77
2022/11/25 03:52:36;;;;;;;6.68;1.33;;;8.80;99.90;;;;;;5092742;28;20027;-78
2022/11/25 03:55:03;;;;;;;5.25;1.20;;;8.80;99.90;;;;;;5093335;28;20087;-77
2022/11/25 03:57:28;;;;;;;6.53;1.25;;;8.80;99.90;;;;;;5098338;28;20023;-77
2022/11/25 03:59:54;;;;;;;6.18;1.05;;;8.90;99.90;;;;;;5089695;28;20032;-77
2022/11/25 04:02:19;;;;;;;5.70;1.15;;;8.80;99.90;;;;;;5097809;28;20024;-77
2022/11/25 04:04:45;;;;;;;5.90;1.20;;;8.80;99.90;;;;;;5080231;28;20028;-77
2022/11/25 04:07:11;;;;;;;6.30;1.30;;;8.80;99.90;;;;;;5088362;28;20435;-77
2022/11/25 04:09:37;;;;;;;2.40;0.75;;;8.80;99.90;;;;;;5092405;28;20059;-77
2022/11/25 04:14:46;;;;;;;7.03;1.45;;;8.80;99.90;;;;;;5086839;28;20072;-76
2022/11/25 04:17:12;;;;;;;7.10;1.40;;;8.80;99.90;;;;;;5072876;28;20107;-76
2022/11/25 04:19:38;;;;;;;4.60;1.33;;;8.80;99.90;;;;;;5086103;28;20491;-77
2022/11/25 04:22:03;;;;;;;7.25;1.42;;;8.80;99.90;;;;;;5089230;28;20123;-77
2022/11/25 04:24:29;;;;;;;4.20;1.05;;;8.80;99.90;;;;;;5097698;28;20031;-78
2022/11/25 04:26:54;;;;;;;5.68;1.60;;;8.80;99.90;;;;;;5096164;28;20077;-78
2022/11/25 04:29:20;;;;;;;5.63;1.30;;;8.80;99.90;;;;;;5066696;28;20024;-78
2022/11/25 04:31:46;;;;;;;5.88;1.30;;;8.70;99.90;;;;;;5086305;28;20031;-78
2022/11/25 04:34:11;;;;;;;4.40;1.10;;;8.70;99.90;;;;;;5090814;28;20050;-77
2022/11/25 04:36:37;;;;;;;4.35;1.10;;;8.70;99.90;;;;;;5096488;28;20028;-78
2022/11/25 04:39:03;;;;;;;5.15;1.40;;;8.70;99.90;;;;;;5089899;28;20390;-77
2022/11/25 04:41:29;;;;;;;3.03;1.00;;;8.60;99.90;;;;;;5086520;28;20032;-77
2022/11/25 04:43:57;;;;;;;3.22;1.00;;;8.60;99.90;;;;;;5074598;28;20081;-78
2022/11/25 04:46:32;;;;;;;4.43;1.17;;;8.50;99.90;;;;;;5091243;28;20076;-78
2022/11/25 04:48:57;;;;;;;3.85;0.88;;;8.50;99.90;;;;;;5086164;28;20021;-78
2022/11/25 04:51:23;;;;;;;2.33;0.85;;;8.60;99.90;;;;;;5091801;28;20024;-78
2022/11/25 04:53:48;;;;;;;7.63;1.33;;;8.60;99.90;;;;;;5093659;28;20035;-78
2022/11/25 04:56:17;;;;;;;4.18;1.00;;;8.60;99.90;;;;;;5079067;28;20024;-78
2022/11/25 05:01:26;;;;;;;4.70;0.93;;;8.60;99.90;;;;;;5085577;28;20114;-78
2022/11/25 05:03:52;;;;;;;4.47;1.20;;;8.50;99.90;;;;;;5082194;28;20477;-78
2022/11/25 05:06:18;;;;;;;2.55;0.73;;;8.50;99.90;;;;;;5062656;28;20078;-77
2022/11/25 05:08:48;;;;;;;3.47;1.05;;;8.50;99.90;;;;;;5089868;28;20029;-77
2022/11/25 05:11:14;;;;;;;2.90;1.00;;;8.40;99.90;;;;;;5077386;28;20028;-77
2022/11/25 05:13:39;;;;;;;1.27;0.70;;;8.50;99.90;;;;;;5081457;28;20048;-78
2022/11/25 05:16:05;;;;;;;2.90;0.80;;;8.40;99.90;;;;;;5072421;28;20077;-77
2022/11/25 05:18:31;;;;;;;4.82;1.27;;;8.40;99.90;;;;;;5084754;28;20024;-77
2022/11/25 05:21:03;;;;;;;2.45;0.75;;;8.40;99.90;;;;;;5069263;28;20123;-78
2022/11/25 05:23:30;;;;;;;2.45;0.70;;;8.40;99.90;;;;;;5090209;28;20016;-78
2022/11/25 05:26:00;;;;;;;3.55;0.95;;;8.40;99.90;;;;;;5073705;28;20039;-78
2022/11/25 05:28:27;;;;;;;3.72;1.00;;;8.30;99.90;;;;;;5082637;28;20431;-78
2022/11/25 05:30:53;;;;;;;3.47;0.77;;;8.30;99.90;;;;;;5072644;28;20488;-78
2022/11/25 05:33:18;;;;;;;5.13;1.00;;;8.30;99.90;;;;;;5065703;28;20032;-77
2022/11/25 05:35:44;;;;;;;3.38;0.90;;;8.30;99.90;;;;;;5097247;28;20024;-78
2022/11/25 05:38:09;;;;;;;3.33;1.15;;;8.20;99.90;;;;;;5099181;28;20031;-77
2022/11/25 05:40:35;;;;;;;2.95;0.95;;;8.20;99.90;;;;;;5084852;28;20036;-78
2022/11/25 05:43:02;;;;;;;6.65;0.95;;;8.10;99.90;;;;;;5099604;28;20024;-77
2022/11/25 05:45:28;;;;;;;9.00;1.48;;;8.10;99.90;;;;;;5070263;28;20025;-78
2022/11/25 05:47:54;;;;;;;5.00;1.08;;;8.10;99.90;;;;;;5096325;28;20032;-77
2022/11/25 05:50:20;;;;;;;6.00;1.42;;;8.10;99.90;;;;;;5082340;28;20031;-77
2022/11/25 05:52:45;;;;;;;6.25;1.20;;;8.00;99.90;;;;;;5097755;28;20396;-78
2022/11/25 05:55:11;;;;;;;4.65;1.27;;;8.00;99.90;;;;;;5086457;28;20028;-78
2022/11/25 05:57:36;;;;;;;4.50;1.10;;;8.00;99.90;;;;;;5089659;28;20483;-78
2022/11/25 06:00:03;;;;;;;6.95;1.48;;;8.10;99.90;;;;;;5089017;28;20050;-77
2022/11/25 06:02:29;;;;;;;5.13;1.13;;;8.00;99.90;;;;;;5098746;28;20016;-77
2022/11/25 06:04:54;;;;;;;4.60;1.15;;;8.10;99.90;;;;;;5077702;28;20020;-77
2022/11/25 06:07:20;;;;;;;3.45;1.00;;;8.20;99.90;;;;;;5093685;28;20035;-77
2022/11/25 06:09:45;;;;;;;3.15;1.02;;;8.20;99.90;;;;;;5075944;28;20033;-78
2022/11/25 06:12:11;;;;;;;6.13;0.90;;;8.30;99.90;;;;;;5067570;28;20028;-78
2022/11/25 06:14:37;;;;;;;7.75;1.55;;;8.30;99.90;;;;;;5097135;28;20416;-78
2022/11/25 06:17:03;;;;;;;2.90;1.00;;;8.30;99.90;;;;;;5079979;28;20024;-78
2022/11/25 06:19:29;;;;;;;3.65;0.93;;;8.30;99.90;;;;;;5093832;28;20107;-78
2022/11/25 06:21:54;;;;;;;3.92;0.93;;;8.30;99.90;;;;;;5092368;28;20071;-78
2022/11/25 06:24:20;;;;;;;4.68;1.05;;;8.20;99.90;;;;;;5069806;28;20495;-78
2022/11/25 06:26:45;;;;;;;2.60;0.85;;;8.20;99.90;;;;;;5090833;28;20029;-78
2022/11/25 06:29:11;;;;;;;4.93;0.80;;;8.10;99.90;;;;;;5071095;28;20047;-78
2022/11/25 06:31:37;;;;;;;5.00;1.10;;;8.10;99.90;;;;;;5084064;28;20090;-78
2022/11/25 06:34:05;;;;;;;6.13;1.00;;;8.10;99.90;;;;;;5074226;28;20031;-78
2022/11/25 06:36:30;;;;;;;5.68;0.95;;;8.10;99.90;;;;;;5077512;28;20031;-78
2022/11/25 06:38:56;;;;;;;3.70;0.85;;;8.10;99.90;;;;;;5096391;28;20488;-78
2022/11/25 06:41:22;;;;;;;6.93;1.40;;;8.10;99.90;;;;;;5103571;28;20407;-78
2022/11/25 06:43:47;;;;;;;6.35;1.48;;;8.10;99.90;;;;;;5091260;28;20024;-78
2022/11/25 06:46:15;;;;;;;3.63;1.10;;;8.10;99.90;;;;;;5094600;28;20111;-79
2022/11/25 06:48:41;;;;;;;6.38;1.10;;;8.00;99.90;;;;;;5080966;28;20119;-79
2022/11/25 06:51:10;;;;;;;4.13;1.00;;;8.10;99.90;;;;;;5098468;28;20063;-78
2022/11/25 06:53:37;;;;;;;4.50;1.10;;;8.10;99.90;;;;;;5078056;28;20031;-79
2022/11/25 06:56:11;;;;;;;6.07;1.40;;;8.10;99.90;;;;;;5074556;28;20052;-79
2022/11/25 06:58:37;;;;;;;4.93;1.17;;;8.10;99.90;;;;;;5082852;28;20020;-79
2022/11/25 07:01:05;;;;;;;4.10;1.10;;;8.10;99.90;;;;;;5078262;28;20020;-79
2022/11/25 07:03:31;;;;;;;4.70;1.55;;;8.10;99.90;;;;;;5070908;28;20170;-78
2022/11/25 07:05:57;;;;;;;4.50;1.50;;;8.10;99.90;;;;;;5096803;28;20051;-78
2022/11/25 07:08:24;;;;;;;5.07;1.30;;;8.00;99.90;;;;;;5076430;28;20590;-79
2022/11/25 07:10:51;;;;;;;5.03;1.25;;;8.00;99.90;;;;;;5092460;28;20030;-79
2022/11/25 07:13:17;;;;;;;4.30;1.08;;;8.00;99.90;;;;;;5089223;28;20051;-78
2022/11/25 07:15:42;;;;;;;6.55;1.50;;;8.00;99.90;;;;;;5091910;28;20038;-79
2022/11/25 07:18:08;;;;;;;4.70;1.05;;;8.00;99.90;;;;;;5081301;28;20028;-78
2022/11/25 07:20:33;;;;;;;6.22;1.33;;;8.00;99.90;;;;;;5081360;28;20071;-79
2022/11/25 07:22:59;;;;;;;3.85;1.50;;;8.00;99.90;;;;;;5099531;28;20024;-79
2022/11/25 07:25:25;;;;;;;3.90;1.25;;;8.00;99.90;;;;;;5080517;28;20037;-79
2022/11/25 07:27:50;;;;;;;3.83;1.20;;;8.00;99.90;;;;;;5096280;28;20027;-79
2022/11/25 07:30:16;;;;;;;2.63;0.90;;;8.00;99.90;;;;;;5068307;28;20089;-77
2022/11/25 07:32:42;;;;;;;6.82;1.65;;;8.00;99.90;;;;;;5095935;28;20024;-77
2022/11/25 07:35:08;;;;;;;6.72;1.85;;;8.00;99.90;;;;;;5094582;28;20031;-78
2022/11/25 07:37:34;;;;;;;5.32;1.70;;;8.00;99.90;;;;;;5097710;28;20066;-78
2022/11/25 07:39:59;;;;;;;6.35;1.23;;;7.90;99.90;;;;;;5085407;28;20107;-77
2022/11/25 07:42:25;;;;;;;4.43;1.33;;;7.80;99.90;;;;;;5095741;28;20157;-78
2022/11/25 07:44:51;;;;;;;5.65;1.88;;;7.80;99.90;;;;;;5070908;28;20499;-79
2022/11/25 07:47:17;;;;;;;6.47;1.60;;;7.80;99.90;;;;;;5086497;28;20020;-77
2022/11/25 07:49:42;;;;;;;4.13;1.27;;;7.90;99.90;;;;;;5073617;28;20028;-77
2022/11/25 07:52:08;;;;;;;4.53;1.02;;;7.90;99.90;;;;;;5087140;28;20032;-77
2022/11/25 07:54:34;;;;;;;7.32;1.88;;;7.80;99.90;;;;;;5096590;28;20041;-79
2022/11/25 07:56:59;;;;;;;5.25;1.15;;;7.90;99.90;;;;;;5068394;28;20050;-78
2022/11/25 07:59:25;;;;;;;5.75;1.70;;;7.90;99.90;;;;;;5093698;28;20081;-78
2022/11/25 08:01:52;;;;;;;6.43;1.40;;;7.90;99.90;;;;;;5097337;28;20031;-77
2022/11/25 08:04:19;;;;;;;7.10;1.85;;;8.00;99.90;;;;;;5074046;28;20027;-79
2022/11/25 08:06:46;;;;;;;5.00;1.50;;;8.00;99.90;;;;;;5096143;28;20027;-76
2022/11/25 08:09:18;;;;;;;6.88;1.73;;;8.00;99.90;;;;;;5091234;28;20032;-76
2022/11/25 08:11:44;;;;;;;5.38;1.20;;;8.10;99.90;;;;;;5099948;28;20056;-73
2022/11/25 08:14:10;;;;;;;6.78;1.60;;;8.10;99.90;;;;;;5079547;28;20067;-77
2022/11/25 08:16:37;;;;;;;6.22;1.63;;;8.10;99.90;;;;;;5079637;28;20020;-76
2022/11/25 08:19:07;;;;;;;7.13;1.90;;;8.20;99.90;;;;;;5097929;28;20373;-77
2022/11/25 08:21:32;;;;;;;4.32;1.42;;;8.20;99.90;;;;;;5076853;28;20040;-79
2022/11/25 08:23:58;;;;;;;4.57;1.48;;;8.20;99.90;;;;;;5085055;28;20078;-78
2022/11/25 08:26:29;;;;;;;7.88;1.88;;;8.20;99.90;;;;;;5090600;28;20404;-78
2022/11/25 08:28:55;;;;;;;8.60;2.20;;;8.20;99.90;;;;;;5066959;28;20024;-78
2022/11/25 08:31:24;;;;;;;6.13;1.73;;;8.30;99.90;;;;;;5070671;28;20024;-78
2022/11/25 08:33:53;;;;;;;8.77;3.08;;;8.30;99.90;;;;;;5088429;28;20020;-78
2022/11/25 08:36:20;;;;;;;9.00;2.20;;;8.40;99.90;;;;;;5089520;28;20078;-77
2022/11/25 08:38:49;;;;;;;7.53;1.83;;;8.30;99.90;;;;;;5075124;28;20024;-78
2022/11/25 08:41:20;;;;;;;8.48;1.98;;;8.40;99.90;;;;;;5071341;28;20028;-77
2022/11/25 08:43:46;;;;;;;5.43;1.73;;;8.50;99.90;;;;;;5070919;28;20020;-80
2022/11/25 08:46:17;;;;;;;6.70;2.10;;;8.50;99.90;;;;;;5075259;28;20027;-75
2022/11/25 08:48:43;;;;;;;7.60;1.73;;;8.50;99.90;;;;;;5084662;28;20538;-76
2022/11/25 08:51:12;;;;;;;10.02;1.55;;;8.60;99.90;;;;;;5089336;28;20024;-76
2022/11/25 08:53:39;;;;;;;8.27;2.00;;;8.60;99.90;;;;;;5076479;28;20400;-76
2022/11/25 08:56:05;;;;;;;11.00;2.03;;;8.70;99.90;;;;;;5105278;28;20028;-76
2022/11/25 08:58:31;;;;;;;4.47;1.55;;;8.70;99.90;;;;;;5076261;28;20870;-76
2022/11/25 09:00:57;;;;;;;8.70;2.17;;;8.70;99.90;;;;;;5091832;28;20067;-76
2022/11/25 09:03:22;;;;;;;6.88;1.70;;;8.70;99.90;;;;;;5087789;28;20052;-76
2022/11/25 09:05:49;;;;;;;4.97;1.15;;;8.80;99.90;;;;;;5070762;28;20024;-76
2022/11/25 09:08:15;;;;;;;8.60;2.03;;;8.80;99.90;;;;;;5084770;28;20074;-75
2022/11/25 09:10:41;;;;;;;8.70;1.80;;;8.80;99.90;;;;;;5089881;28;20482;-76
2022/11/25 09:13:09;;;;;;;12.38;1.90;;;8.90;99.90;;;;;;5085229;28;20028;-80
2022/11/25 09:15:35;;;;;;;8.82;1.65;;;8.90;99.90;;;;;;5089546;28;20020;-79
2022/11/25 09:18:05;;;;;;;7.57;1.50;;;8.90;99.90;;;;;;5071707;28;20040;-79
2022/11/25 09:20:32;;;;;;;10.23;2.60;;;9.00;99.90;;;;;;5093302;28;20028;-78
2022/11/25 09:22:59;;;;;;;9.02;2.53;;;8.90;99.90;;;;;;5082580;28;20043;-76
2022/11/25 09:25:24;;;;;;;9.10;2.13;;;8.90;99.90;;;;;;5075655;28;20052;-76
2022/11/25 09:27:50;;;;;;;10.13;1.67;;;8.90;99.90;;;;;;5068396;28;20511;-76
2022/11/25 09:30:16;;;;;;;5.25;1.70;;;9.00;99.90;;;;;;5088309;28;20103;-76
2022/11/25 09:32:42;;;;;;;10.23;1.95;;;9.00;99.90;;;;;;5089407;28;20123;-76
2022/11/25 09:35:07;;;;;;;9.95;2.33;;;9.00;99.90;;;;;;5085218;28;20078;-76
2022/11/25 09:37:33;;;;;;;11.85;2.55;;;9.10;99.90;;;;;;5064295;28;20050;-76
2022/11/25 09:39:59;;;;;;;12.00;2.55;;;9.10;99.90;;;;;;5083451;28;20077;-75
2022/11/25 09:49:13;;;;;;;11.00;2.90;;;9.20;99.90;;;;;;5081153;28;20081;-79
2022/11/25 09:51:51;;;;;;;8.50;2.50;;;9.20;99.90;;;;;;5065130;28;20115;-75
2022/11/25 09:54:33;;;;;;;9.32;1.65;;;9.30;99.90;;;;;;5066897;28;20047;-75
2022/11/25 09:57:41;;;;;;;7.78;2.13;;;9.30;99.90;;;;;;5069957;28;20028;-74
2022/11/25 10:00:16;;;;;;;11.60;2.70;;;9.40;99.90;;;;;;5074840;28;20060;-73
2022/11/25 10:02:54;;;;;;;12.00;1.88;;;9.40;99.90;;;;;;5089017;28;20035;-73
2022/11/25 10:05:22;;;;;;;8.55;2.00;;;9.50;99.90;;;;;;5074075;28;20070;-73
2022/11/25 10:07:52;;;;;;;10.35;2.17;;;9.60;99.90;;;;;;5094741;28;20046;-73
2022/11/25 10:10:46;;;;;;;12.85;2.10;;;9.60;99.90;;;;;;5074538;28;20021;-73
2022/11/25 10:13:26;;;;;;;;;;;9.70;99.90;;;;;;5088608;28;20094;-73
2022/11/25 10:15:56;;;;;;;6.95;1.80;;;9.70;99.90;;;;;;5095423;28;19918;-73
2022/11/25 10:18:36;;;;;;;15.05;2.45;;;9.70;99.90;;;;;;5082842;28;20024;-74
2022/11/25 10:21:03;;;;;;;8.55;2.22;;;9.80;99.90;;;;;;5084545;28;20053;-73
2022/11/25 10:23:34;;;;;;;8.07;1.90;;;9.90;99.90;;;;;;5081879;28;20081;-73
2022/11/25 10:26:14;;;;;;;9.15;2.13;;;9.90;99.90;;;;;;5089886;28;20025;-74
2022/11/25 10:28:52;;;;;;;12.63;2.60;;;10.00;99.90;;;;;;5061625;28;20024;-73
2022/11/25 10:31:36;;;;;;;11.52;2.50;;;10.10;99.90;;;;;;5095139;28;20024;-73
2022/11/25 10:34:13;;;;;;;7.25;2.00;;;10.10;99.90;;;;;;5097379;28;20042;-74
2022/11/25 10:36:41;;;;;;;9.13;2.47;;;10.20;99.90;;;;;;5097906;28;20047;-74
2022/11/25 10:39:16;;;;;;;7.28;2.17;;;10.20;99.90;;;;;;5095954;28;20430;-75
2022/11/25 10:42:18;;;;;;;8.70;2.47;;;10.30;99.90;;;;;;5086586;28;20023;-73
2022/11/25 10:44:43;;;;;;;9.00;1.70;;;10.40;99.90;;;;;;5099850;28;20032;-74
2022/11/25 10:47:36;;;;;;;9.82;2.42;;;10.40;99.90;;;;;;5099186;28;20030;-74
2022/11/25 10:50:24;;;;;;;11.90;1.90;;;10.50;99.90;;;;;;5072909;28;20028;-74
2022/11/25 10:52:53;;;;;;;9.07;2.20;;;10.60;99.90;;;;;;5092715;28;20050;-73
2022/11/25 10:55:24;;;;;;;7.80;1.90;;;10.60;99.90;;;;;;5071152;28;20029;-74
2022/11/25 10:57:50;;;;;;;6.45;1.73;;;10.60;99.90;;;;;;5088518;28;20046;-75
2022/11/25 11:00:30;;;;;;;8.90;1.95;;;10.70;99.90;;;;;;5102665;28;20083;-74
2022/11/25 11:02:57;;;;;;;7.25;2.20;;;10.70;99.90;;;;;;5096719;28;20028;-75
2022/11/25 11:05:29;;;;;;;10.05;1.75;;;10.70;99.90;;;;;;5098421;28;20055;-73
2022/11/25 11:08:16;;;;;;;9.25;2.08;;;10.70;99.90;;;;;;5109666;28;20023;-74
2022/11/25 11:10:42;;;;;;;9.18;2.22;;;10.70;99.90;;;;;;5090489;28;20027;-74
2022/11/25 11:13:17;;;;;;;8.68;1.92;;;10.80;99.90;;;;;;5092346;28;20016;-73
2022/11/25 11:15:45;;;;;;;10.32;2.13;;;10.90;99.90;;;;;;5092478;28;20492;-78
2022/11/25 11:18:29;;;;;;;8.98;1.75;;;10.90;99.90;;;;;;5076382;28;20111;-76
2022/11/25 11:20:57;;;;;;;7.22;1.80;;;11.00;99.90;;;;;;5063039;28;20053;-76
2022/11/25 11:23:24;;;;;;;8.90;1.65;;;10.90;99.90;;;;;;5075358;28;20492;-76
2022/11/25 11:25:59;;;;;;;9.35;2.55;;;10.90;99.90;;;;;;5075232;28;20517;-76
2022/11/25 11:28:34;;;;;;;11.93;2.10;;;11.00;99.90;;;;;;5066748;28;20024;-79
2022/11/25 11:31:16;;;;;;;7.60;1.60;;;11.00;99.90;;;;;;5077213;28;20078;-78
2022/11/25 11:33:55;;;;;;;7.78;1.80;;;11.10;99.90;;;;;;5076497;28;20021;-78
2022/11/25 11:36:50;;;;;;;8.57;2.30;;;11.10;99.90;;;;;;5077907;28;20074;-82
2022/11/25 11:39:40;;;;;;;9.40;1.98;;;11.10;99.90;;;;;;5073545;28;20047;-76
2022/11/25 11:42:34;;;;;;;8.25;1.85;;;11.20;99.90;;;;;;5072313;28;20031;-76
2022/11/25 11:45:23;;;;;;;6.47;1.75;;;11.10;99.90;;;;;;5058574;28;20032;-75
2022/11/25 11:48:19;;;;;;;8.45;1.70;;;11.20;99.90;;;;;;5075094;28;20485;-76
2022/11/25 11:50:46;;;;;;;6.35;1.80;;;11.20;99.90;;;;;;5076444;28;20546;-75
2022/11/25 11:53:26;;;;;;;11.02;2.08;;;11.20;99.90;;;;;;5076462;28;20129;-76
2022/11/25 11:56:15;;;;;;;10.27;2.05;;;11.30;99.90;;;;;;5075662;28;20496;-77
2022/11/25 11:59:15;;;;;;;8.80;1.55;;;11.30;99.90;;;;;;5052779;28;20025;-77
2022/11/25 12:01:47;;;;;;;6.32;1.20;;;11.40;99.90;;;;;;5045600;28;20052;-76
2022/11/25 12:04:26;;;;;;;10.30;2.00;;;11.40;99.90;;;;;;5058850;28;20039;-76
2022/11/25 12:07:10;;;;;;;6.63;1.35;;;11.40;99.90;;;;;;5074448;28;20480;-76
2022/11/25 12:09:44;;;;;;;7.55;1.35;;;11.50;99.90;;;;;;5052963;28;20093;-76
2022/11/25 12:12:15;;;;;;;7.50;1.80;;;11.40;99.90;;;;;;5076967;28;20076;-75
2022/11/25 12:14:49;;;;;;;8.73;2.17;;;11.50;99.90;;;;;;5047673;28;20074;-76
2022/11/25 12:17:43;;;;;;;10.38;1.88;;;11.50;99.90;;;;;;5049066;28;20033;-77
2022/11/25 12:20:27;;;;;;;9.85;2.30;;;11.50;99.90;;;;;;5065942;28;20033;-77
2022/11/25 12:23:14;;;;;;;8.07;1.65;;;11.50;99.90;;;;;;5062282;28;20144;-76
2022/11/25 12:25:41;;;;;;;12.10;2.38;;;11.50;99.90;;;;;;5057213;28;20017;-78
2022/11/25 12:28:07;;;;;;;15.30;2.05;;;11.60;99.90;;;;;;5070409;28;20020;-76
2022/11/25 12:31:02;;;;;;;8.32;1.55;;;11.70;99.90;;;;;;5071177;28;20025;-75
2022/11/25 12:33:50;;;;;;;9.10;1.58;;;11.70;99.90;;;;;;5051767;28;20036;-76
2022/11/25 12:36:39;;;;;;;4.38;1.30;;;11.80;99.90;;;;;;5052448;28;20035;-76
2022/11/25 12:39:34;;;;;;;9.50;1.70;;;11.80;99.90;;;;;;5065203;28;20032;-82
2022/11/25 12:42:03;;;;;;;7.63;1.25;;;11.80;99.90;;;;;;5046835;28;20040;-78
2022/11/25 12:44:42;;;;;;;6.82;1.65;;;11.80;99.90;;;;;;5073930;28;20493;-80
2022/11/25 12:47:10;;;;;;;12.63;1.98;;;11.80;99.90;;;;;;5051182;28;20054;-79
2022/11/25 12:49:42;;;;;;;11.70;2.28;;;11.80;99.90;;;;;;5058832;28;20028;-81
2022/11/25 12:52:15;;;;;;;8.47;1.87;;;11.90;99.90;;;;;;5076408;28;20033;-75
2022/11/25 12:55:10;;;;;;;;;;;12.00;99.90;;;;;;5073552;28;20048;-76
2022/11/25 12:57:51;;;;;;;6.30;1.48;;;12.00;99.90;;;;;;5050380;28;19923;-74
2022/11/25 13:00:20;;;;;;;11.27;2.05;;;12.00;99.90;;;;;;5065757;28;20432;-80
2022/11/25 13:03:24;;;;;;;14.32;1.73;;;12.00;99.90;;;;;;5030800;28;20059;-76
2022/11/25 13:06:09;;;;;;;8.50;1.55;;;12.00;99.90;;;;;;5049686;28;20021;-77
2022/11/25 13:08:54;;;;;;;13.40;1.90;;;12.10;99.90;;;;;;5075630;28;20028;-76
2022/11/25 13:11:31;;;;;;;6.28;1.33;;;12.10;99.90;;;;;;5074235;28;20024;-79
2022/11/25 13:14:18;;;;;;;10.25;1.63;;;12.00;99.90;;;;;;5074564;28;20071;-81
2022/11/25 13:16:45;;;;;;;9.20;1.67;;;12.00;99.90;;;;;;5062374;28;20500;-79
2022/11/25 13:19:15;;;;;;;11.82;2.25;;;12.00;99.90;;;;;;5057368;28;20016;-78
2022/11/25 13:22:03;;;;;;;5.07;1.45;;;12.10;99.90;;;;;;5053628;28;20045;-79